AirNav   Duncan Aviation - Near you to keep you flying
 
 1499 users online  

SC58 Ja Field Airport
Pageland, South Carolina, USA


FAA INFORMATION EFFECTIVE 07 OCTOBER 2021

Location

FAA Identifier: SC58
Lat/Long: 34-44-39.5000N 080-23-20.0000W
34-44.658333N 080-23.333333W
34.7443056,-80.3888889
(estimated)
Elevation: 570 ft. / 174 m (estimated)
From city: 2 miles S of PAGELAND, SC
Time zone: UTC -4 (UTC -5 during Standard Time)
Zip code: 29728

Airport Operations

Airport use: Private use. Permission required prior to landing
Activation date: 10/2020
Control tower: no
ARTCC: ATLANTA CENTER
FSS: ANDERSON FLIGHT SERVICE STATION
Attendance: 
Segmented circle: no

Airport Communications

CTAF: 122.9

Nearby radio navigation aids

VOR radial/distance  VOR name  Freq  Var
CTFr318/8.0CHESTERFIELD VOR/DME108.2003W
CLTr139/38.5CHARLOTTE VOR/DME115.0005W

 
NDB name  Hdg/Dist  Freq  Var  ID
LANCASTER094/23.240007WLKR .-.. -.- .-.
HARTSVILLE334/24.234107WHVS .... ...- ...
DARLINGTON312/30.724506WUDG ..- -.. --.
BENNETTSVILLE291/33.223008WBES -... . ...

Airport Services

Runway Information

Runway 7/25

Dimensions: 2200 x 80 ft. / 671 x 24 m
Surface: turf
RUNWAY 7  RUNWAY 25
Latitude: 34-44.583333N34-44.733333N
Longitude: 080-23.533333W080-23.133333W
Elevation: 550.0 ft.570.0 ft.
Traffic pattern: leftright

Airport Ownership and Management from official FAA records

Ownership: Privately-owned
Owner: JORDAN SEIDHOM
1425 S PEARL ST
PAGELAND, SC 29728
Phone 843-672-8230
Manager: JORDAN SEIDHOM
1425 S PEARL ST
PAGELAND, SC 29728
Phone 843-672-8230

Airport Operational Statistics

Aircraft based on the field: 1
Single engine airplanes: 1
    

Instrument Procedures

There are no published instrument procedures at SC58.

Some nearby airports with instrument procedures:

KPYG - Pageland Airport (2 nm E)
N52 - JAARS-Townsend Airport (19 nm W)
KEQY - Charlotte-Monroe Executive Airport (20 nm NW)
KCQW - Cheraw Municipal Airport/Lynch Bellinger Field (21 nm E)
KAFP - Anson County Airport - Jeff Cloud Field (23 nm NE)
 
Loc | Ops | Rwys | IFR | FBO | Links
Com | Nav | Svcs | Stats | Notes
Aerial photo
No photo
 
Airport distance calculator
Flying to Ja Field Airport? Find the distance to fly.

From to SC58

Sunrise and sunset
Times for 18-Oct-2021
 Local
(UTC-4)
 Zulu
(UTC)
Morning civil twilight07:0511:05
Sunrise07:3111:31
Sunset18:4322:43
Evening civil twilight19:0823:08

Current date and time
Zulu (UTC)  18-Oct-2021 20:54:31
Local (UTC-4)  18-Oct-2021 16:54:31
 
METAR
KEQY 
20nm NW 
181953Z AUTO 26006KT 10SM CLR 23/03 A3010 RMK AO2 SLP203 T02280028
KCQW 
21nm E 
182035Z AUTO 32006KT 10SM CLR 23/03 A3008 RMK AO2 PWINO
KAFP 
23nm NE 
182035Z AUTO 30005KT 10SM CLR 23/02 A3009 RMK AO2 T02310019
KLKR 
23nm W 
182035Z AUTO VRB04KT 10SM CLR 23/03 A3011 RMK AO2
KHVS 
24nm SE 
182035Z AUTO 25004KT 10SM CLR 23/03 A3010 RMK AO2
KCDN 
29nm S 
182035Z AUTO 24008KT 10SM CLR 23/03 A3012 RMK AO2
KUDG 
31nm SE 
181956Z AUTO 26005KT 10SM CLR 24/05 A3010 RMK AO2 SLP194 T02390050
KRCZ 
32nm E 
182035Z AUTO 31004KT 10SM CLR 22/05 A3009 RMK AO2 T02240053
KBBP 
33nm E 
182035Z AUTO 27007KT 10SM CLR 23/05 A3009 RMK AO2
KUZA 
36nm NW 
181954Z AUTO 32008KT 10SM CLR 24/03 A3012 RMK AO2 SLP196 T02390033
TAF
KCLT 
40nm NW 
181958Z 1820/1924 26006KT P6SM SKC FM190200 33003KT P6SM SKC FM191700 22005KT P6SM SKC
KFLO 
47nm SE 
181721Z 1818/1918 32006KT P6SM SKC FM190000 00000KT P6SM SKC
KSSC 
47nm S 
181500Z 1815/1921 32006KT 9999 SKC QNH3010INS TX24/1819Z TN08/1912Z
NOTAMs
Click for the latest NOTAMs
NOTAMs are issued by the DoD/FAA and will open in a separate window not controlled by AirNav.

 

 
 

Would you like to see your business listed on this page?

 If your business provides an interesting product or service to pilots, flight crews, aircraft, or users of the Ja Field Airport, you should consider listing it here.  To start the listing process, click on the button below
 
Add a business
 

Other Pages about Ja Field Airport

Update a link
 
Copyright © AirNav, LLC. All rights reserved. Privacy Policy  Contact